Cortaro, Arizona
Current Conditions -  °F | °C
As of 6:59 AM on Saturday 25 Oct 2014 (Local Time) from KRYN Reporting Station
Clear Clear  
Wind Chill: 63°   Ceiling: Unl
Heat Index: 63°   Visibility: 10mi
Dew Point: 52°   Wind: 6mph
Humidity: 68%   Direction: 110°ESE
Pressure: 30.11"   Gusts: NA
Location:  32.36°N, 111.09°W
Report Text: KRYN 251359Z 11005KT 10SM CLR 17/11 A3011
Loading
Personal Weather Stations






























Interactive Weather Map
Tropical Storm Tracking
New forecast layout! Learn more

10-Day Weather Forecast

Advertisements
Track Severe Weather on mobile